Terminal Aerodrome Forecast
Issued by NWS Twin Cities, MN

Home | Current Version | Previous Version | Text Only | Print | Product List | Glossary On
Versions: 1 2 3 4 5 6 7 8 9 10 11 12 13 14 15 16 17 18
755
FTUS43 KMPX 251135
TAFSTC
TAF
KSTC 251135Z 2512/2612 19010KT P6SM SCT010 BKN035
      TEMPO 2512/2514 4SM -RA BR OVC015
     FM251400 24012KT P6SM SCT020 BKN050
     FM251600 25013G20KT P6SM OVC035
     FM252000 28018G25KT P6SM VCSH OVC025
     FM260000 29015G23KT 6SM -RA BR SCT025 OVC040
     FM260400 29013G20KT P6SM OVC060=

USA.gov is the U.S. government's official web portal to all federal, state and local government web resources and services.